Time;durP1;ratioP1;P1;durP2;ratioP2;P2;SDS_P1;SDS_P2;PMS_P1;PMS_P2;Temp;Humidity;BMP_temperature;BMP_pressure;BME280_temperature;BME280_humidity;BME280_pressure;Samples;Min_cycle;Max_cycle;Signal;HPM_P1;HPM_P2
2022/05/25 00:02:06;;;;;;;5.37;4.97;;;12.90;99.90;;;;;;5040397;28;21362;-70
2022/05/25 00:05:00;;;;;;;5.53;5.13;;;12.80;99.90;;;;;;5037860;28;20593;-70
2022/05/25 00:07:48;;;;;;;5.27;4.77;;;12.80;99.90;;;;;;5038775;28;20529;-70
2022/05/25 00:10:37;;;;;;;5.20;4.70;;;12.80;99.90;;;;;;5040851;28;20600;-70
2022/05/25 00:13:27;;;;;;;5.20;4.90;;;12.80;99.90;;;;;;5040203;28;20571;-70
2022/05/25 00:16:20;;;;;;;5.70;5.20;;;12.80;99.90;;;;;;5042851;28;20517;-70
2022/05/25 00:22:14;;;;;;;6.10;5.50;;;12.80;99.90;;;;;;5034796;28;20506;-69
2022/05/25 00:25:03;;;;;;;6.43;5.93;;;12.80;99.90;;;;;;5040450;28;20952;-70
2022/05/25 00:27:52;;;;;;;5.27;4.93;;;12.80;99.90;;;;;;5039441;28;20476;-69
2022/05/25 00:30:43;;;;;;;5.40;5.10;;;12.70;99.90;;;;;;5039785;28;21005;-69
2022/05/25 00:33:37;;;;;;;6.03;5.43;;;12.70;99.90;;;;;;5037103;28;20482;-70
2022/05/25 00:36:32;;;;;;;6.63;5.60;;;12.70;99.90;;;;;;5040026;28;20455;-70
2022/05/25 00:39:23;;;;;;;6.97;6.37;;;12.70;99.90;;;;;;5040044;28;20557;-69
2022/05/25 00:42:12;;;;;;;5.30;5.00;;;12.60;99.90;;;;;;5038322;28;21065;-69
2022/05/25 00:45:03;;;;;;;6.10;5.60;;;12.60;99.90;;;;;;5039092;28;20713;-69
2022/05/25 00:47:52;;;;;;;6.77;6.17;;;12.70;99.90;;;;;;5039343;28;20637;-70
2022/05/25 00:53:52;;;;;;;6.33;5.70;;;12.70;99.90;;;;;;5037773;28;20562;-70
2022/05/25 00:56:44;;;;;;;6.47;5.97;;;12.70;99.90;;;;;;5039675;28;21023;-69
2022/05/25 00:59:43;;;;;;;6.40;5.90;;;12.60;99.90;;;;;;5037629;28;20500;-70
2022/05/25 01:02:35;;;;;;;7.10;6.60;;;12.60;99.90;;;;;;5036817;28;20469;-70
2022/05/25 01:05:52;;;;;;;7.20;6.70;;;12.60;99.90;;;;;;5039039;28;20501;-70
2022/05/25 01:08:53;;;;;;;6.30;5.80;;;12.70;99.90;;;;;;5039347;28;20557;-70
2022/05/25 01:11:58;;;;;;;6.47;5.97;;;12.60;99.90;;;;;;5041005;28;20454;-70
2022/05/25 01:14:58;;;;;;;6.07;5.57;;;12.60;99.90;;;;;;5035275;28;20989;-70
2022/05/25 01:18:14;;;;;;;6.87;6.37;;;12.60;99.90;;;;;;5041867;28;20553;-70
2022/05/25 01:21:14;;;;;;;6.83;6.33;;;12.50;99.90;;;;;;5033075;28;20542;-70
2022/05/25 01:24:18;;;;;;;6.33;5.73;;;12.50;99.90;;;;;;5035523;28;20475;-70
2022/05/25 01:27:27;;;;;;;6.60;5.93;;;12.40;99.90;;;;;;5040117;28;20441;-71
2022/05/25 01:30:29;;;;;;;7.40;6.70;;;12.40;99.90;;;;;;5038269;28;20516;-70
2022/05/25 01:33:25;;;;;;;7.27;6.57;;;12.40;99.90;;;;;;5035656;28;20926;-70
2022/05/25 01:36:23;;;;;;;7.13;6.63;;;12.40;99.90;;;;;;5034411;28;20554;-70
2022/05/25 01:39:18;;;;;;;7.03;6.40;;;12.50;99.90;;;;;;5039427;28;21068;-69
2022/05/25 01:42:13;;;;;;;7.17;6.57;;;12.40;99.90;;;;;;5037174;28;20515;-69
2022/05/25 01:45:04;;;;;;;7.83;7.13;;;12.40;99.90;;;;;;5040870;28;20488;-70
2022/05/25 01:47:58;;;;;;;7.60;6.90;;;12.40;99.90;;;;;;5039717;28;20478;-69
2022/05/25 01:50:51;;;;;;;7.60;7.00;;;12.40;99.90;;;;;;5037073;28;20467;-69
2022/05/25 01:53:50;;;;;;;8.27;7.57;;;12.40;99.90;;;;;;5036635;28;20478;-70
2022/05/25 01:56:46;;;;;;;8.10;7.30;;;12.40;99.90;;;;;;5039833;28;20539;-70
2022/05/25 01:59:34;;;;;;;8.70;7.97;;;12.30;99.90;;;;;;5038445;28;20475;-70
2022/05/25 02:05:53;;;;;;;8.77;8.00;;;12.40;99.90;;;;;;5036986;28;20482;-70
2022/05/25 02:08:52;;;;;;;8.57;7.87;;;12.30;99.90;;;;;;5036257;28;20935;-70
2022/05/25 02:11:47;;;;;;;8.50;7.70;;;12.40;99.90;;;;;;5037780;28;20463;-69
2022/05/25 02:14:55;;;;;;;8.20;7.60;;;12.30;99.90;;;;;;5039977;28;20474;-69
2022/05/25 02:17:55;;;;;;;8.20;7.60;;;12.30;99.90;;;;;;5037214;28;20475;-70
2022/05/25 02:20:53;;;;;;;7.83;7.13;;;12.30;99.90;;;;;;5035377;28;20514;-70
2022/05/25 02:23:51;;;;;;;8.40;7.70;;;12.30;99.90;;;;;;5037151;28;20475;-70
2022/05/25 02:26:45;;;;;;;7.90;7.20;;;12.30;99.90;;;;;;5038497;28;20459;-70
2022/05/25 02:29:36;;;;;;;9.13;8.33;;;12.30;99.90;;;;;;5037728;28;21114;-70
2022/05/25 02:32:39;;;;;;;8.43;7.70;;;12.30;99.90;;;;;;5036399;28;20483;-70
2022/05/25 02:35:30;;;;;;;7.73;7.13;;;12.30;99.90;;;;;;5038658;28;20849;-70
2022/05/25 02:38:21;;;;;;;8.83;8.03;;;12.30;99.90;;;;;;5035149;28;20796;-70
2022/05/25 02:41:27;;;;;;;8.13;7.43;;;12.30;99.90;;;;;;5036094;28;20450;-69
2022/05/25 02:44:15;;;;;;;8.30;7.70;;;12.30;99.90;;;;;;5036833;28;21057;-70
2022/05/25 02:47:03;;;;;;;8.10;7.40;;;12.30;99.90;;;;;;5040825;28;20447;-70
2022/05/25 02:49:51;;;;;;;9.60;8.80;;;12.30;99.90;;;;;;5044128;28;20463;-70
2022/05/25 02:52:40;;;;;;;8.70;8.03;;;12.30;99.90;;;;;;5043522;28;20477;-70
2022/05/25 02:55:33;;;;;;;8.40;7.70;;;12.30;99.90;;;;;;5047635;28;20453;-70
2022/05/25 02:58:22;;;;;;;9.17;8.37;;;12.20;99.90;;;;;;5038431;28;20494;-70
2022/05/25 03:01:10;;;;;;;8.00;7.40;;;12.30;99.90;;;;;;5038693;28;20466;-70
2022/05/25 03:03:58;;;;;;;8.37;7.70;;;12.30;99.90;;;;;;5039468;28;20512;-69
2022/05/25 03:06:48;;;;;;;8.20;7.60;;;12.30;99.90;;;;;;5037529;28;20451;-70
2022/05/25 03:09:38;;;;;;;8.50;7.80;;;12.30;99.90;;;;;;5040577;28;20552;-70
2022/05/25 03:12:27;;;;;;;9.00;8.30;;;12.20;99.90;;;;;;5037512;28;20536;-69
2022/05/25 03:15:20;;;;;;;8.80;8.10;;;12.20;99.90;;;;;;5035324;28;20535;-70
2022/05/25 03:18:08;;;;;;;9.07;8.27;;;12.20;99.90;;;;;;5035032;28;20558;-69
2022/05/25 03:20:59;;;;;;;9.13;8.40;;;12.10;99.90;;;;;;5038699;28;20464;-69
2022/05/25 03:23:47;;;;;;;8.47;7.77;;;12.10;99.90;;;;;;5037605;28;20483;-70
2022/05/25 03:26:41;;;;;;;9.20;8.40;;;12.00;99.90;;;;;;5038790;28;20509;-69
2022/05/25 03:29:33;;;;;;;9.10;8.30;;;12.00;99.90;;;;;;5037923;28;20514;-69
2022/05/25 03:32:22;;;;;;;9.10;8.40;;;12.00;99.90;;;;;;5035835;28;20471;-70
2022/05/25 03:35:24;;;;;;;10.50;9.50;;;12.00;99.90;;;;;;5038245;28;20490;-70
2022/05/25 03:38:12;;;;;;;8.97;8.27;;;11.90;99.90;;;;;;5054620;28;20573;-70
2022/05/25 03:41:02;;;;;;;8.87;8.23;;;11.90;99.90;;;;;;5050814;28;20505;-70
2022/05/25 03:43:56;;;;;;;9.53;8.83;;;11.90;99.90;;;;;;5043177;28;20501;-70
2022/05/25 03:46:48;;;;;;;10.27;9.47;;;11.90;99.90;;;;;;5040315;28;20541;-70
2022/05/25 03:49:37;;;;;;;9.50;8.60;;;11.90;99.90;;;;;;5036673;28;20577;-70
2022/05/25 03:52:28;;;;;;;8.50;7.90;;;11.80;99.90;;;;;;5037000;28;20463;-69
2022/05/25 03:55:21;;;;;;;10.13;9.33;;;11.80;99.90;;;;;;5040248;28;21018;-69
2022/05/25 03:58:10;;;;;;;10.00;9.00;;;11.80;99.90;;;;;;5039189;28;20617;-70
2022/05/25 04:01:00;;;;;;;9.90;8.90;;;11.80;99.90;;;;;;5041570;28;20545;-70
2022/05/25 04:03:50;;;;;;;9.67;8.87;;;11.70;99.90;;;;;;5037916;28;20502;-70
2022/05/25 04:06:43;;;;;;;10.07;9.27;;;11.80;99.90;;;;;;5038593;28;20459;-70
2022/05/25 04:09:33;;;;;;;9.47;8.77;;;11.80;99.90;;;;;;5041793;28;20519;-70
2022/05/25 04:12:22;;;;;;;10.20;9.40;;;11.80;99.90;;;;;;5036938;28;20483;-70
2022/05/25 04:15:17;;;;;;;9.80;9.00;;;11.80;99.90;;;;;;5033916;28;20471;-70
2022/05/25 04:18:05;;;;;;;9.60;8.90;;;11.80;99.90;;;;;;5039726;28;20552;-69
2022/05/25 04:20:58;;;;;;;9.93;9.13;;;11.80;99.90;;;;;;5039328;28;20459;-69
2022/05/25 04:23:46;;;;;;;10.43;9.63;;;11.70;99.90;;;;;;5037079;28;20477;-70
2022/05/25 04:26:36;;;;;;;10.90;9.83;;;11.80;99.90;;;;;;5039728;28;20534;-69
2022/05/25 04:29:24;;;;;;;10.60;9.70;;;11.80;99.90;;;;;;5040196;28;20613;-69
2022/05/25 04:32:13;;;;;;;10.40;9.63;;;11.80;99.90;;;;;;5034381;28;20505;-71
2022/05/25 04:35:02;;;;;;;9.87;9.00;;;11.90;99.90;;;;;;5040015;28;20474;-70
2022/05/25 04:37:55;;;;;;;11.20;10.20;;;11.90;99.90;;;;;;5039749;28;20477;-70
2022/05/25 04:40:44;;;;;;;11.53;10.53;;;12.00;99.90;;;;;;5044631;28;20448;-71
2022/05/25 04:43:38;;;;;;;11.20;10.30;;;12.00;99.90;;;;;;5043104;28;20506;-70
2022/05/25 04:46:28;;;;;;;10.50;9.70;;;12.10;99.90;;;;;;5044016;28;20455;-70
2022/05/25 04:49:18;;;;;;;11.17;10.17;;;12.10;99.90;;;;;;5036685;28;20471;-70
2022/05/25 04:52:06;;;;;;;11.10;10.20;;;12.20;99.90;;;;;;5036500;28;20620;-71
2022/05/25 04:54:56;;;;;;;10.10;9.20;;;12.30;99.90;;;;;;5037704;28;20612;-71
2022/05/25 04:57:49;;;;;;;10.50;9.50;;;12.30;99.90;;;;;;5018994;28;20497;-71
2022/05/25 05:00:39;;;;;;;10.97;10.07;;;12.40;99.90;;;;;;5036759;28;20447;-70
2022/05/25 05:03:32;;;;;;;10.53;9.63;;;12.40;99.90;;;;;;5031132;28;20575;-70
2022/05/25 05:06:20;;;;;;;9.77;8.97;;;12.50;99.90;;;;;;5039033;28;20548;-70
2022/05/25 05:09:11;;;;;;;10.93;10.03;;;12.50;99.90;;;;;;5035112;28;20520;-70
2022/05/25 05:12:04;;;;;;;10.90;10.00;;;12.50;99.90;;;;;;5029871;28;20452;-71
2022/05/25 05:14:59;;;;;;;11.07;10.17;;;12.60;99.90;;;;;;5040206;28;20999;-70
2022/05/25 05:17:47;;;;;;;11.30;10.40;;;12.60;99.90;;;;;;5037776;28;20482;-70
2022/05/25 05:20:37;;;;;;;10.53;9.70;;;12.60;99.90;;;;;;5035776;28;20577;-70
2022/05/25 05:23:37;;;;;;;11.23;10.23;;;12.70;99.90;;;;;;5037281;28;20529;-70
2022/05/25 05:26:29;;;;;;;9.90;9.07;;;12.70;99.90;;;;;;5057390;28;21202;-70
2022/05/25 05:29:19;;;;;;;10.17;9.37;;;12.70;99.90;;;;;;5051378;28;20933;-70
2022/05/25 05:32:10;;;;;;;9.67;8.87;;;12.80;99.90;;;;;;5039107;28;20507;-70
2022/05/25 05:35:04;;;;;;;9.23;8.50;;;12.80;99.90;;;;;;5036981;28;20482;-70
2022/05/25 05:37:55;;;;;;;9.73;8.80;;;12.80;99.90;;;;;;5037919;28;21059;-70
2022/05/25 05:40:44;;;;;;;9.77;8.97;;;12.80;99.90;;;;;;5036631;28;21236;-71
2022/05/25 05:43:34;;;;;;;8.40;7.80;;;12.90;99.90;;;;;;5037459;28;20533;-70
2022/05/25 05:46:26;;;;;;;8.10;7.40;;;12.90;99.90;;;;;;5037223;28;20843;-71
2022/05/25 05:49:18;;;;;;;8.50;7.70;;;13.00;99.90;;;;;;5038236;28;20808;-70
2022/05/25 05:52:07;;;;;;;7.63;7.03;;;13.00;99.90;;;;;;5034329;28;21060;-70
2022/05/25 05:54:59;;;;;;;9.37;8.47;;;13.00;99.90;;;;;;5036551;28;20483;-70
2022/05/25 05:57:50;;;;;;;8.50;7.80;;;13.10;99.90;;;;;;5040217;28;20474;-70
2022/05/25 06:00:39;;;;;;;8.40;7.70;;;13.10;99.90;;;;;;5036995;28;21012;-70
2022/05/25 06:03:30;;;;;;;7.57;6.87;;;13.10;99.90;;;;;;5028084;28;21010;-70
2022/05/25 06:06:19;;;;;;;7.43;6.80;;;13.10;99.90;;;;;;5028512;28;21197;-71
2022/05/25 06:09:07;;;;;;;7.77;7.17;;;13.20;99.90;;;;;;5025095;28;20570;-70
2022/05/25 06:11:58;;;;;;;7.10;6.50;;;13.20;99.90;;;;;;5028689;28;20443;-70
2022/05/25 06:14:49;;;;;;;6.30;5.80;;;13.30;99.90;;;;;;5030478;28;21073;-70
2022/05/25 06:20:49;;;;;;;6.10;5.60;;;13.40;99.90;;;;;;5026177;28;20447;-71
2022/05/25 06:23:37;;;;;;;6.40;5.90;;;13.40;99.90;;;;;;5023890;28;20489;-71
2022/05/25 06:26:30;;;;;;;6.47;5.97;;;13.40;99.90;;;;;;5028379;28;20554;-72
2022/05/25 06:29:20;;;;;;;6.43;5.83;;;13.40;99.90;;;;;;5020488;28;20474;-72
2022/05/25 06:32:10;;;;;;;6.20;5.80;;;13.50;99.90;;;;;;5021686;28;20513;-72
2022/05/25 06:34:58;;;;;;;6.03;5.63;;;13.50;99.90;;;;;;5028272;28;20569;-72
2022/05/25 06:37:48;;;;;;;6.47;5.80;;;13.60;99.90;;;;;;5028292;28;20474;-72
2022/05/25 06:40:36;;;;;;;6.10;5.57;;;13.60;99.90;;;;;;5050442;28;20861;-71
2022/05/25 06:43:24;;;;;;;5.93;5.23;;;13.60;99.90;;;;;;5052860;28;21031;-72
2022/05/25 06:46:14;;;;;;;6.23;5.73;;;13.70;99.90;;;;;;5053078;28;20448;-71
2022/05/25 06:49:07;;;;;;;7.17;5.77;;;13.80;99.90;;;;;;5035370;28;20466;-72
2022/05/25 06:51:56;;;;;;;6.80;6.20;;;13.80;99.90;;;;;;5029070;28;20467;-71
2022/05/25 06:54:45;;;;;;;6.83;6.30;;;13.80;99.90;;;;;;5029109;28;21772;-71
2022/05/25 06:57:40;;;;;;;6.93;6.37;;;13.80;99.90;;;;;;5025925;28;20459;-72
2022/05/25 07:00:28;;;;;;;6.27;5.67;;;13.80;99.90;;;;;;5025913;28;20455;-71
2022/05/25 07:03:16;;;;;;;6.00;5.40;;;13.90;99.90;;;;;;5027752;28;20554;-72
2022/05/25 07:06:05;;;;;;;5.47;5.07;;;14.00;99.90;;;;;;5031799;28;20459;-71
2022/05/25 07:08:56;;;;;;;5.60;5.10;;;14.10;99.90;;;;;;5030909;28;20474;-71
2022/05/25 07:11:50;;;;;;;5.37;4.93;;;14.10;99.90;;;;;;5024500;28;20486;-71
2022/05/25 07:14:39;;;;;;;5.73;5.33;;;14.20;99.90;;;;;;5031632;28;20459;-71
2022/05/25 07:17:32;;;;;;;5.40;4.90;;;14.20;99.90;;;;;;5029989;28;20459;-71
2022/05/25 07:20:22;;;;;;;4.93;4.37;;;14.30;99.90;;;;;;5027043;28;20648;-72
2022/05/25 07:23:11;;;;;;;4.20;3.90;;;14.40;99.90;;;;;;5034754;28;20483;-71
2022/05/25 07:25:59;;;;;;;9.90;4.07;;;14.40;99.90;;;;;;5039177;28;20511;-71
2022/05/25 07:28:48;;;;;;;5.60;5.20;;;14.50;99.90;;;;;;5034152;28;20466;-71
2022/05/25 07:31:42;;;;;;;4.90;4.50;;;14.60;99.90;;;;;;5027420;28;20486;-71
2022/05/25 07:34:39;;;;;;;5.60;5.10;;;14.60;99.90;;;;;;5035284;28;20457;-71
2022/05/25 07:37:32;;;;;;;5.50;4.50;;;14.60;99.90;;;;;;5035265;28;20596;-71
2022/05/25 07:40:31;;;;;;;4.77;4.37;;;14.70;99.90;;;;;;5036849;28;21432;-71
2022/05/25 07:43:25;;;;;;;4.80;4.40;;;14.80;99.90;;;;;;5039567;28;20473;-71
2022/05/25 07:46:16;;;;;;;4.53;4.23;;;14.80;99.90;;;;;;5038972;28;20466;-71
2022/05/25 07:49:07;;;;;;;4.20;3.90;;;14.80;99.90;;;;;;5037938;28;20960;-71
2022/05/25 07:51:57;;;;;;;5.33;4.13;;;14.80;99.90;;;;;;5040087;28;20597;-71
2022/05/25 07:54:50;;;;;;;4.50;4.10;;;14.90;99.90;;;;;;5038126;28;20471;-69
2022/05/25 07:57:41;;;;;;;4.50;4.17;;;14.90;99.90;;;;;;5038588;28;20466;-69
2022/05/25 08:00:32;;;;;;;4.07;3.77;;;15.00;99.90;;;;;;5041385;28;21044;-69
2022/05/25 08:06:33;;;;;;;3.90;3.60;;;15.10;99.90;;;;;;5046959;28;20493;-72
2022/05/25 08:09:27;;;;;;;4.37;4.07;;;15.10;99.90;;;;;;5059287;28;20470;-70
2022/05/25 08:12:19;;;;;;;4.07;3.77;;;15.20;99.90;;;;;;5053572;28;20532;-69
2022/05/25 08:15:15;;;;;;;4.03;3.70;;;15.30;99.90;;;;;;5038362;28;21023;-70
2022/05/25 08:18:05;;;;;;;4.80;4.40;;;15.40;99.90;;;;;;5036724;28;20519;-69
2022/05/25 08:21:00;;;;;;;4.67;4.27;;;15.40;99.90;;;;;;5041189;28;20481;-69
2022/05/25 08:23:55;;;;;;;4.10;3.70;;;15.50;99.90;;;;;;5035807;28;20941;-69
2022/05/25 08:26:46;;;;;;;4.80;4.43;;;15.60;99.90;;;;;;5038548;28;20458;-70
2022/05/25 08:29:41;;;;;;;4.57;4.23;;;15.70;99.90;;;;;;5035889;28;21640;-69
2022/05/25 08:32:32;;;;;;;4.37;4.07;;;15.70;99.90;;;;;;5036904;28;20528;-69
2022/05/25 08:35:29;;;;;;;3.97;3.67;;;15.70;99.90;;;;;;5034850;28;20448;-69
2022/05/25 08:38:21;;;;;;;5.90;5.40;;;15.80;99.90;;;;;;5034831;28;20475;-69
2022/05/25 08:41:11;;;;;;;4.80;4.40;;;15.80;99.90;;;;;;5033998;28;20469;-69
2022/05/25 08:44:03;;;;;;;5.57;5.10;;;15.90;99.90;;;;;;5034498;28;20861;-72
2022/05/25 08:46:55;;;;;;;4.33;4.03;;;16.00;99.90;;;;;;5032496;28;21053;-69
2022/05/25 08:49:49;;;;;;;4.50;4.20;;;16.10;99.90;;;;;;5038248;28;21264;-70
2022/05/25 08:52:40;;;;;;;3.70;3.50;;;16.20;99.90;;;;;;5037227;28;20480;-69
2022/05/25 08:55:43;;;;;;;4.10;3.73;;;16.30;99.90;;;;;;5035039;28;20530;-71
2022/05/25 08:58:43;;;;;;;3.60;3.40;;;16.40;99.90;;;;;;5035584;28;20471;-70
2022/05/25 09:01:38;;;;;;;3.33;3.13;;;16.50;99.90;;;;;;5038410;28;20581;-70
2022/05/25 09:04:34;;;;;;;2.80;2.63;;;16.50;99.90;;;;;;5030477;28;20956;-70
2022/05/25 09:07:30;;;;;;;4.10;3.90;;;16.60;99.90;;;;;;5035442;28;20447;-68
2022/05/25 09:10:20;;;;;;;3.70;3.40;;;16.70;99.90;;;;;;5038647;28;20811;-69
2022/05/25 09:13:15;;;;;;;2.93;2.73;;;16.70;99.90;;;;;;5043685;28;20557;-69
2022/05/25 09:16:17;;;;;;;4.00;3.70;;;16.80;99.90;;;;;;5041541;28;20457;-69
2022/05/25 09:19:09;;;;;;;5.37;3.07;;;16.90;99.90;;;;;;5037167;28;20489;-70
2022/05/25 09:22:05;;;;;;;2.93;2.73;;;16.90;99.90;;;;;;5035011;28;21031;-69
2022/05/25 09:24:56;;;;;;;2.97;2.80;;;17.00;99.90;;;;;;5034759;28;20518;-69
2022/05/25 09:27:48;;;;;;;3.43;3.23;;;17.00;99.90;;;;;;5035252;28;20556;-70
2022/05/25 09:30:42;;;;;;;4.63;2.60;;;17.10;99.90;;;;;;5034487;28;20580;-70
2022/05/25 09:33:39;;;;;;;3.23;3.03;;;17.10;99.90;;;;;;5033720;28;20511;-70
2022/05/25 09:36:35;;;;;;;3.77;3.57;;;17.10;99.90;;;;;;5033348;28;20557;-69
2022/05/25 09:39:31;;;;;;;4.33;3.40;;;17.10;99.90;;;;;;5032716;28;20478;-69
2022/05/25 09:42:22;;;;;;;3.60;3.40;;;17.20;99.90;;;;;;5032385;28;20487;-70
2022/05/25 09:45:15;;;;;;;3.77;3.47;;;17.20;99.90;;;;;;5033102;28;20593;-70
2022/05/25 09:48:16;;;;;;;3.47;3.23;;;17.20;99.90;;;;;;5031840;28;20483;-70
2022/05/25 09:51:17;;;;;;;3.60;3.30;;;17.30;99.90;;;;;;5035579;28;20510;-69
2022/05/25 09:54:12;;;;;;;3.23;3.03;;;17.30;99.90;;;;;;5035459;28;20482;-70
2022/05/25 09:57:05;;;;;;;3.37;3.17;;;17.40;99.90;;;;;;5035383;28;20534;-70
2022/05/25 10:00:02;;;;;;;4.13;3.83;;;17.50;99.90;;;;;;5033486;28;20486;-70
2022/05/25 10:03:00;;;;;;;3.93;3.57;;;17.50;99.90;;;;;;5029120;28;20482;-70
2022/05/25 10:05:56;;;;;;;3.30;3.10;;;17.50;99.90;;;;;;5031533;28;20447;-70
2022/05/25 10:09:07;;;;;;;3.33;3.13;;;17.60;99.90;;;;;;5032817;28;20486;-70
2022/05/25 10:11:57;;;;;;;3.63;3.33;;;17.60;99.90;;;;;;5030628;28;20525;-69
2022/05/25 10:14:57;;;;;;;3.43;3.23;;;17.70;99.90;;;;;;5033376;28;20466;-71
2022/05/25 10:17:49;;;;;;;2.50;2.40;;;17.80;99.90;;;;;;5032061;28;20497;-70
2022/05/25 10:20:47;;;;;;;3.27;2.97;;;17.90;99.90;;;;;;5035878;28;20462;-70
2022/05/25 10:23:44;;;;;;;3.10;2.90;;;18.00;99.90;;;;;;5031968;28;20610;-70
2022/05/25 10:26:39;;;;;;;3.30;3.00;;;18.10;99.90;;;;;;5035504;28;20532;-71
2022/05/25 10:39:19;;;;;;;2.57;2.40;;;18.30;99.90;;;;;;5031884;28;20498;-72
2022/05/25 10:42:17;;;;;;;2.77;2.53;;;18.30;99.90;;;;;;5030396;28;20488;-71
2022/05/25 10:45:09;;;;;;;3.50;2.40;;;18.30;99.90;;;;;;5028587;28;20498;-72
2022/05/25 10:48:13;;;;;;;2.70;2.50;;;18.30;99.90;;;;;;5033629;28;20482;-71
2022/05/25 10:51:13;;;;;;;3.00;2.80;;;18.30;99.90;;;;;;5032441;28;20460;-71
2022/05/25 10:57:38;;;;;;;2.70;2.50;;;18.40;99.90;;;;;;5034946;28;20483;-71
2022/05/25 11:00:37;;;;;;;2.33;2.23;;;18.40;99.90;;;;;;5034285;28;20779;-71
2022/05/25 11:03:53;;;;;;;2.20;2.10;;;18.40;99.90;;;;;;5031962;28;20474;-72
2022/05/25 11:07:01;;;;;;;3.00;2.70;;;18.30;99.90;;;;;;5037531;28;20447;-72
2022/05/25 11:10:07;;;;;;;2.00;1.90;;;18.30;99.90;;;;;;5032610;28;20470;-71
2022/05/25 11:13:09;;;;;;;3.60;2.00;;;18.20;99.90;;;;;;5036288;28;20486;-72
2022/05/25 11:16:17;;;;;;;2.50;2.40;;;18.40;99.90;;;;;;5051711;28;20470;-71
2022/05/25 11:19:44;;;;;;;3.00;2.33;;;18.40;99.90;;;;;;5046002;28;20508;-71
2022/05/25 11:22:51;;;;;;;2.73;2.00;;;18.50;99.90;;;;;;5034875;28;20492;-71
2022/05/25 11:26:02;;;;;;;2.03;1.83;;;18.70;99.90;;;;;;5032365;28;20533;-71
2022/05/25 11:29:37;;;;;;;3.47;2.00;;;18.80;99.90;;;;;;5035339;28;20543;-71
2022/05/25 11:32:37;;;;;;;2.10;2.00;;;19.00;99.90;;;;;;5024989;28;20566;-71
2022/05/25 11:35:45;;;;;;;2.23;2.13;;;19.10;99.90;;;;;;5026457;28;20463;-71
2022/05/25 11:38:57;;;;;;;2.63;1.80;;;19.20;99.90;;;;;;5022465;28;20602;-70
2022/05/25 11:41:55;;;;;;;3.33;2.00;;;19.30;99.90;;;;;;5024701;28;20458;-71
2022/05/25 11:45:09;;;;;;;1.97;1.50;;;19.40;99.90;;;;;;5028738;28;23103;-70
2022/05/25 11:48:13;;;;;;;1.73;1.50;;;19.50;99.90;;;;;;5022321;28;20553;-71
2022/05/25 11:51:17;;;;;;;3.10;1.67;;;19.50;99.90;;;;;;5023899;28;20828;-71
2022/05/25 11:54:24;;;;;;;5.00;1.80;;;19.50;99.90;;;;;;5022777;28;20482;-70
2022/05/25 11:57:20;;;;;;;1.70;1.50;;;19.50;99.90;;;;;;5029501;28;20544;-70
2022/05/25 12:00:21;;;;;;;1.60;1.50;;;19.60;99.90;;;;;;5033525;28;20459;-71
2022/05/25 12:03:53;;;;;;;1.67;1.57;;;19.60;99.90;;;;;;5037089;28;21183;-70
2022/05/25 12:07:08;;;;;;;1.90;1.80;;;19.70;99.90;;;;;;5027015;28;20455;-71
2022/05/25 12:10:27;;;;;;;2.57;1.93;;;19.80;99.90;;;;;;5021853;28;21096;-70
2022/05/25 12:13:31;;;;;;;1.80;1.70;;;19.70;99.90;;;;;;5026947;28;20501;-71
2022/05/25 12:16:34;;;;;;;2.10;1.90;;;19.70;99.90;;;;;;5027290;28;20462;-70
2022/05/25 12:19:27;;;;;;;1.60;1.40;;;19.60;99.90;;;;;;5026673;28;20838;-71
2022/05/25 12:22:20;;;;;;;1.47;1.40;;;19.40;99.90;;;;;;5024819;28;20497;-70
2022/05/25 12:25:17;;;;;;;1.87;1.67;;;19.40;99.90;;;;;;5034545;28;20539;-70
2022/05/25 12:28:06;;;;;;;1.87;1.77;;;19.30;99.90;;;;;;5037794;28;20470;-70
2022/05/25 12:31:00;;;;;;;2.00;1.90;;;19.40;99.90;;;;;;5038801;28;20990;-70
2022/05/25 12:33:53;;;;;;;2.03;1.87;;;19.40;99.90;;;;;;5032057;28;20521;-70
2022/05/25 12:36:54;;;;;;;1.70;1.60;;;19.40;99.90;;;;;;5038834;28;20463;-70
2022/05/25 12:40:13;;;;;;;2.27;2.07;;;19.50;99.90;;;;;;5038147;28;20569;-71
2022/05/25 12:43:03;;;;;;;1.47;1.40;;;19.60;99.90;;;;;;5003035;28;20562;-70
2022/05/25 12:49:03;;;;;;;1.90;1.80;;;19.70;99.90;;;;;;5032887;28;20654;-71
2022/05/25 12:51:52;;;;;;;1.70;1.60;;;19.70;99.90;;;;;;5034030;28;20459;-71
2022/05/25 12:54:43;;;;;;;1.33;1.23;;;19.60;99.90;;;;;;5037258;28;20443;-71
2022/05/25 12:57:44;;;;;;;1.23;1.20;;;19.70;99.90;;;;;;5031859;28;21000;-71
2022/05/25 13:00:40;;;;;;;2.70;1.40;;;19.80;99.90;;;;;;5030427;28;20494;-70
2022/05/25 13:04:19;;;;;;;1.70;1.60;;;19.90;99.90;;;;;;5033423;28;21355;-70
2022/05/25 13:07:30;;;;;;;2.30;1.77;;;20.10;99.90;;;;;;5029482;28;20457;-71
2022/05/25 13:10:44;;;;;;;1.37;1.20;;;20.30;99.90;;;;;;5033111;28;20466;-71
2022/05/25 13:13:48;;;;;;;1.20;1.10;;;20.30;99.90;;;;;;5035049;28;20498;-70
2022/05/25 13:16:52;;;;;;;1.63;1.20;;;20.30;99.90;;;;;;5033636;28;20533;-70
2022/05/25 13:19:46;;;;;;;1.57;1.10;;;20.30;99.90;;;;;;5028883;28;20486;-70
2022/05/25 13:22:38;;;;;;;1.63;1.20;;;20.30;99.90;;;;;;5032841;28;20474;-71
2022/05/25 13:25:41;;;;;;;1.40;1.30;;;20.50;99.90;;;;;;5035285;28;20522;-70
2022/05/25 13:28:42;;;;;;;1.13;1.10;;;20.80;99.90;;;;;;5036081;28;20549;-70
2022/05/25 13:31:42;;;;;;;2.03;1.60;;;21.00;99.90;;;;;;5034151;28;20450;-71
2022/05/25 13:34:33;;;;;;;4.60;1.40;;;21.00;99.90;;;;;;5029929;28;20483;-70
2022/05/25 13:37:22;;;;;;;1.17;1.07;;;21.00;99.90;;;;;;5028462;28;21025;-71
2022/05/25 13:40:12;;;;;;;1.53;1.43;;;21.20;99.90;;;;;;5032536;28;20475;-70
2022/05/25 13:43:02;;;;;;;1.83;1.10;;;21.40;99.90;;;;;;5036650;28;20466;-70
2022/05/25 13:46:02;;;;;;;3.00;1.30;;;21.50;99.90;;;;;;5027590;28;20524;-71
2022/05/25 13:48:55;;;;;;;2.03;1.17;;;21.60;99.90;;;;;;5026293;28;20467;-71
2022/05/25 13:51:46;;;;;;;1.27;1.20;;;21.80;99.90;;;;;;5030238;28;20466;-71
2022/05/25 13:54:52;;;;;;;1.40;1.30;;;22.00;99.90;;;;;;5034683;28;20483;-71
2022/05/25 13:57:49;;;;;;;1.40;1.30;;;22.20;99.90;;;;;;5031338;28;20542;-71
2022/05/25 14:00:50;;;;;;;1.73;1.40;;;22.40;99.90;;;;;;5031775;28;20787;-71
2022/05/25 14:03:54;;;;;;;2.23;1.50;;;22.50;99.90;;;;;;5042700;28;20494;-71
2022/05/25 14:06:45;;;;;;;1.57;1.30;;;22.30;99.90;;;;;;5041782;28;20969;-71
2022/05/25 14:12:43;;;;;;;1.40;1.20;;;22.30;99.90;;;;;;5030507;28;21154;-70
2022/05/25 14:15:31;;;;;;;2.17;1.80;;;22.30;99.90;;;;;;5031651;28;20542;-71
2022/05/25 14:18:22;;;;;;;2.93;2.00;;;22.30;99.90;;;;;;5024309;28;20522;-71
2022/05/25 14:21:12;;;;;;;2.90;1.70;;;22.30;99.90;;;;;;5028860;28;20826;-70
2022/05/25 14:24:07;;;;;;;1.37;1.27;;;22.50;99.90;;;;;;5025963;28;20539;-70
2022/05/25 14:26:57;;;;;;;3.23;1.90;;;22.70;99.90;;;;;;5028056;28;20458;-70
2022/05/25 14:29:53;;;;;;;1.43;1.33;;;22.90;99.90;;;;;;5027168;28;20566;-70
2022/05/25 14:33:02;;;;;;;1.50;1.40;;;22.90;99.90;;;;;;5027373;28;20510;-71
2022/05/25 14:35:59;;;;;;;1.37;1.27;;;22.80;99.90;;;;;;5028133;28;21446;-71
2022/05/25 14:38:52;;;;;;;1.50;1.40;;;22.80;99.90;;;;;;5019955;28;20565;-73
2022/05/25 14:41:55;;;;;;;1.93;1.33;;;23.00;99.90;;;;;;5024866;28;20524;-70
2022/05/25 14:44:51;;;;;;;1.67;1.57;;;23.10;99.90;;;;;;5028261;28;20838;-71
2022/05/25 14:47:48;;;;;;;1.77;1.47;;;22.80;99.90;;;;;;5025778;28;20553;-70
2022/05/25 14:50:41;;;;;;;1.57;1.47;;;22.70;99.90;;;;;;5026329;28;20463;-71
2022/05/25 14:53:33;;;;;;;1.33;1.23;;;22.60;99.90;;;;;;5033718;28;20503;-70
2022/05/25 14:56:27;;;;;;;1.10;1.10;;;22.30;99.90;;;;;;5029188;28;23510;-71
2022/05/25 14:59:31;;;;;;;1.00;1.00;;;22.20;99.90;;;;;;5029710;28;20489;-71
2022/05/25 15:02:39;;;;;;;1.20;1.10;;;21.90;99.90;;;;;;5028609;28;20581;-71
2022/05/25 15:05:43;;;;;;;2.40;1.60;;;21.80;99.90;;;;;;5035817;28;21025;-70
2022/05/25 15:08:37;;;;;;;1.00;1.00;;;21.40;99.90;;;;;;5033371;28;20473;-71
2022/05/25 15:11:36;;;;;;;2.43;1.53;;;21.30;99.90;;;;;;5034549;28;20490;-71
2022/05/25 15:20:48;;;;;;;1.40;1.30;;;21.10;99.90;;;;;;5032634;28;20482;-71
2022/05/25 15:23:58;;;;;;;1.53;1.40;;;21.10;99.90;;;;;;5029249;28;21044;-70
2022/05/25 15:26:57;;;;;;;2.07;1.77;;;21.00;99.90;;;;;;5033569;28;20470;-70
2022/05/25 15:29:53;;;;;;;2.67;1.50;;;20.80;99.90;;;;;;5033585;28;20822;-71
2022/05/25 15:32:44;;;;;;;2.23;1.67;;;20.60;99.90;;;;;;5028788;28;20555;-70
2022/05/25 15:35:37;;;;;;;2.37;1.50;;;20.50;99.90;;;;;;5034810;28;20537;-70
2022/05/25 15:38:31;;;;;;;2.80;2.13;;;20.20;99.90;;;;;;5035111;28;20482;-70
2022/05/25 15:41:21;;;;;;;1.90;1.80;;;20.20;99.90;;;;;;5032559;28;20462;-70
2022/05/25 15:44:12;;;;;;;1.87;1.70;;;20.10;99.90;;;;;;5031952;28;20471;-70
2022/05/25 15:47:00;;;;;;;2.70;2.50;;;19.90;99.90;;;;;;5039059;28;20483;-70
2022/05/25 15:49:53;;;;;;;7.30;5.27;;;19.80;99.90;;;;;;5040381;28;20470;-70
2022/05/25 15:52:47;;;;;;;4.20;2.70;;;19.80;99.90;;;;;;5041804;28;20474;-70